»·PEaware :: DLH794 EDDF-RKSI

DLH794 :: EDDF-RKSI

FLIGHT INFORMATION

Flight Status: Arrived
Operator:
Lufthansa
More flights by this operator :: More flights under this callsign
Pilot: Anonymous 14085 (14085)
Aircraft: Unknown
(A359)
More flights by this aircraft type
Origin: EDDF Frankfurt/Main
Germany
Destination: RKSI Incheon Intl
Republic of Korea
More flights between these airports :: More routes between these airports
Route: TOBAK9G TOBAK N858 ERSIL Y172 MAG Z20 ESIKA GILAS/K0896F370 M994 DENKO N858 BOKSU/N0487F370 N858 LAFAT/K0902F370 N858 VTB N869 BD P865 GINOM/K0928S1130 A308 BULAG A575 UDA Y345 POLHO W33 UKDUM UNSEK A326 DONVO G597 AGAVO/N0499F370 Y644 REBIT COWAY1P
File this flight plan on PilotEdge
Remarks: RMK / SIMBRIEF
Altitude:
(Current/Filed)
37,000ft
Speed:
(Current/Filed)
485kts
Departed: 24-Sep-20 10:12 PM
Arrived: 25-Sep-20 08:21 AM
Distance/Time
Traveled:
4610nm/10:09
Distance/Time
To Go:
Arrived

Flight Plot

Page will automatically refresh every two minutes.

Flight plan parsing failed; only flown route is shown


Map Options




Map Legend


Flown Route
Filed Route
Departure Airport
Arrival Airport
Navaid (VOR, NDB)
Fix

Horizontal Profiles

Position Reports

Time Latitude Longitude Heading Altitude Ground
Speed
24-Sep-20 21:42 50.047750 8.564914 339 376ft 0kts
24-Sep-20 21:44 50.047750 8.564914 339 376ft 0kts
24-Sep-20 21:45 50.047750 8.564914 339 375ft 0kts
24-Sep-20 21:45 50.047750 8.564914 339 375ft 0kts
24-Sep-20 21:47 50.047750 8.564914 339 375ft 0kts
24-Sep-20 21:47 50.047750 8.564914 339 375ft 0kts
24-Sep-20 21:49 50.047750 8.564914 339 375ft 0kts
24-Sep-20 21:50 50.047750 8.564914 339 375ft 0kts
24-Sep-20 21:50 50.047750 8.564914 339 375ft 0kts
24-Sep-20 21:51 50.047750 8.564914 339 375ft 0kts
24-Sep-20 21:52 50.047639 8.564978 339 375ft 2kts
24-Sep-20 21:53 50.047149 8.565335 300 375ft 2kts
24-Sep-20 21:54 50.047177 8.565908 231 375ft 0kts
24-Sep-20 21:55 50.047177 8.565908 231 375ft 0kts
24-Sep-20 21:56 50.047177 8.565907 231 375ft 0kts
24-Sep-20 21:57 50.047177 8.565907 231 375ft 0kts
24-Sep-20 21:58 50.046784 8.565361 205 375ft 13kts
24-Sep-20 21:59 50.044552 8.561251 249 375ft 12kts
24-Sep-20 22:00 50.042381 8.559524 251 375ft 9kts
24-Sep-20 22:01 50.041555 8.555880 249 375ft 9kts
24-Sep-20 22:03 50.039079 8.545526 249 375ft 22kts
24-Sep-20 22:04 50.035720 8.532763 249 375ft 20kts
24-Sep-20 22:05 50.033842 8.525971 209 375ft 5kts
24-Sep-20 22:06 50.033677 8.525909 182 375ft 0kts
24-Sep-20 22:07 50.033678 8.525909 182 375ft 0kts
24-Sep-20 22:08 50.033678 8.525909 182 375ft 0kts
24-Sep-20 22:09 50.033678 8.525909 182 375ft 0kts
24-Sep-20 22:10 50.033678 8.525909 182 375ft 0kts
24-Sep-20 22:11 50.019972 8.526026 180 376ft 151kts
24-Sep-20 22:12 49.974661 8.519582 219 2541ft 169kts
24-Sep-20 22:13 49.936452 8.461248 223 3720ft 219kts
24-Sep-20 22:14 49.888439 8.389348 223 5509ft 258kts
24-Sep-20 22:15 49.887424 8.287929 299 7982ft 276kts
24-Sep-20 22:16 49.933799 8.191250 326 10080ft 299kts
24-Sep-20 22:17 50.020778 8.215027 23 11129ft 363kts
24-Sep-20 22:18 50.118938 8.284778 22 12134ft 410kts
24-Sep-20 22:19 50.225029 8.358955 22 14020ft 426kts
24-Sep-20 22:20 50.327878 8.455273 40 15781ft 443kts
24-Sep-20 22:21 50.382154 8.531545 41 16771ft 452kts
24-Sep-20 22:26 53.618610 9.964476 50 66ft 0kts
24-Sep-20 22:27 53.618610 9.964476 50 66ft 0kts
24-Sep-20 22:28 53.618610 9.964476 50 66ft 0kts
24-Sep-20 22:29 53.618610 9.964476 50 66ft 0kts
24-Sep-20 22:30 53.618610 9.964476 50 66ft 0kts
24-Sep-20 22:31 53.618610 9.964476 50 66ft 0kts
24-Sep-20 22:32 53.618610 9.964476 50 66ft 0kts
24-Sep-20 22:33 53.625529 9.978546 48 67ft 141kts
24-Sep-20 22:34 53.661544 10.026688 73 2302ft 173kts
24-Sep-20 22:35 53.628520 10.086995 145 3614ft 220kts
24-Sep-20 22:36 53.571494 10.149543 146 5714ft 259kts
24-Sep-20 22:37 53.510256 10.216145 147 8386ft 267kts
24-Sep-20 22:38 53.467891 10.323686 85 10391ft 312kts
24-Sep-20 22:39 53.483788 10.657991 89 13157ft 395kts
24-Sep-20 22:40 53.491068 10.846519 90 15352ft 406kts
24-Sep-20 22:41 53.498054 11.037725 92 17407ft 415kts
24-Sep-20 22:42 53.504768 11.234127 92 19246ft 428kts
24-Sep-20 22:43 53.511383 11.436246 92 20990ft 440kts
24-Sep-20 22:44 53.517868 11.644693 93 22640ft 452kts
24-Sep-20 22:45 53.524145 11.858154 94 24206ft 464kts
24-Sep-20 22:46 53.530202 12.078178 94 25632ft 475kts
24-Sep-20 22:47 53.535948 12.302007 94 26946ft 486kts
24-Sep-20 22:48 53.541415 12.531664 94 28254ft 495kts
24-Sep-20 22:49 53.546536 12.761449 95 29981ft 491kts
24-Sep-20 22:50 53.551102 12.990299 95 31395ft 491kts
24-Sep-20 22:51 53.555074 13.221206 94 32328ft 500kts
24-Sep-20 22:52 53.558933 13.455345 94 33496ft 500kts
24-Sep-20 22:53 53.562258 13.689506 94 34569ft 500kts
24-Sep-20 22:54 53.565125 13.922856 94 35597ft 498kts
24-Sep-20 22:55 53.567500 14.154895 95 36492ft 496kts
24-Sep-20 22:56 53.569413 14.386098 95 36550ft 496kts
24-Sep-20 22:57 53.570877 14.617793 95 36551ft 496kts
24-Sep-20 22:58 53.571931 14.848946 95 36553ft 495kts
24-Sep-20 22:59 53.572367 15.063195 94 36550ft 495kts
24-Sep-20 23:00 53.572583 15.294252 93 36552ft 496kts
24-Sep-20 23:01 53.572362 15.526234 93 36550ft 496kts
24-Sep-20 23:02 53.571649 15.757503 94 36550ft 495kts
24-Sep-20 23:03 53.570486 15.989003 94 36550ft 495kts
24-Sep-20 23:04 53.568861 16.220375 94 36555ft 495kts
24-Sep-20 23:05 53.566807 16.451465 94 36572ft 495kts
24-Sep-20 23:06 53.564292 16.683201 95 36578ft 495kts
24-Sep-20 23:07 53.561351 16.914279 95 36585ft 495kts
24-Sep-20 23:08 53.557947 17.144735 95 36618ft 494kts
24-Sep-20 23:09 53.554127 17.375442 95 36629ft 494kts
24-Sep-20 23:10 53.549845 17.605684 95 36632ft 494kts
24-Sep-20 23:11 53.545138 17.836567 96 36629ft 493kts
24-Sep-20 23:12 53.540040 18.064429 96 36627ft 493kts
24-Sep-20 23:13 53.534438 18.294279 96 36631ft 492kts
24-Sep-20 23:14 53.528422 18.523557 96 36629ft 492kts
24-Sep-20 23:15 53.529384 18.754372 87 36644ft 497kts
24-Sep-20 23:16 53.560944 18.981672 74 36651ft 504kts
24-Sep-20 23:17 53.606505 19.204118 73 36660ft 500kts
24-Sep-20 23:18 53.650968 19.425253 73 36662ft 499kts
24-Sep-20 23:19 53.694961 19.647004 73 36680ft 498kts
24-Sep-20 23:20 53.738249 19.868853 74 36710ft 498kts
24-Sep-20 23:21 53.781078 20.091228 74 36715ft 499kts
24-Sep-20 23:22 53.823489 20.313817 74 36715ft 498kts
24-Sep-20 23:23 53.865506 20.537043 74 36715ft 498kts
24-Sep-20 23:24 53.907156 20.760908 75 36715ft 498kts
24-Sep-20 23:25 53.948407 20.985120 74 36717ft 497kts
24-Sep-20 23:26 53.989017 21.208181 75 36715ft 493kts
24-Sep-20 23:28 54.029014 21.430879 74 36716ft 492kts
24-Sep-20 23:29 54.068646 21.653728 75 36715ft 492kts
24-Sep-20 23:30 54.107924 21.877106 75 36714ft 492kts
24-Sep-20 23:31 54.147082 22.100566 75 36716ft 492kts
24-Sep-20 23:32 54.185335 22.323987 75 36716ft 493kts
24-Sep-20 23:33 54.223296 22.548675 75 36752ft 493kts
24-Sep-20 23:34 54.260681 22.773294 76 36796ft 492kts
24-Sep-20 23:35 54.297699 22.999056 75 36799ft 491kts
24-Sep-20 23:36 54.333349 23.223050 75 36798ft 488kts
24-Sep-20 23:37 54.368087 23.447702 75 36799ft 488kts
24-Sep-20 23:38 54.402489 23.672905 76 36797ft 488kts
24-Sep-20 23:39 54.436332 23.897952 76 36798ft 488kts
24-Sep-20 23:40 54.469829 24.123469 76 36799ft 488kts
24-Sep-20 23:41 54.512557 24.345486 68 36800ft 489kts
24-Sep-20 23:42 54.562303 24.561950 68 36800ft 488kts
24-Sep-20 23:43 54.611685 24.780371 69 36818ft 488kts
24-Sep-20 23:44 54.660500 24.998642 69 36824ft 488kts
24-Sep-20 23:45 54.708656 25.216018 68 36827ft 481kts
24-Sep-20 23:46 54.755940 25.431458 68 36824ft 480kts
24-Sep-20 23:47 54.802979 25.648142 68 36825ft 480kts
24-Sep-20 23:47 54.833392 25.832892 79 36824ft 480kts
24-Sep-20 23:48 54.851109 26.061926 83 36824ft 480kts
24-Sep-20 23:49 54.867010 26.291770 83 36826ft 480kts
24-Sep-20 23:50 54.882588 26.521505 82 36825ft 480kts
24-Sep-20 23:51 54.897771 26.751787 83 36833ft 480kts
24-Sep-20 23:52 54.912579 26.982598 84 36891ft 482kts
24-Sep-20 23:53 54.926859 27.211947 85 36907ft 473kts
24-Sep-20 23:54 54.940491 27.439852 85 36908ft 474kts
24-Sep-20 23:55 54.953754 27.667883 86 36908ft 474kts
24-Sep-20 23:56 54.966591 27.895718 86 36908ft 474kts
24-Sep-20 23:57 54.979023 28.123922 86 36909ft 474kts
24-Sep-20 23:58 54.991035 28.352477 86 36909ft 474kts
24-Sep-20 23:59 55.002621 28.581075 86 36909ft 475kts
25-Sep-20 00:00 55.013818 28.810098 87 36907ft 475kts
25-Sep-20 00:01 55.024671 29.039636 87 36932ft 478kts
25-Sep-20 00:02 55.038220 29.270173 83 36959ft 479kts
25-Sep-20 00:03 55.057903 29.499646 83 36963ft 479kts
25-Sep-20 00:04 55.077126 29.729337 84 36963ft 479kts
25-Sep-20 00:05 55.095923 29.959157 83 36963ft 479kts
25-Sep-20 00:06 55.114853 30.190156 82 36963ft 479kts
25-Sep-20 00:07 55.149221 30.414983 70 36963ft 483kts
25-Sep-20 00:08 55.208485 30.626478 62 36963ft 485kts
25-Sep-20 00:09 55.271979 30.834768 64 36963ft 485kts
25-Sep-20 00:10 55.333108 31.045537 65 36963ft 485kts
25-Sep-20 00:11 55.393301 31.257039 65 36963ft 485kts
25-Sep-20 00:12 55.453359 31.469486 65 36963ft 485kts
25-Sep-20 00:13 55.513088 31.682721 65 36964ft 485kts
25-Sep-20 00:14 55.572307 31.896465 65 36963ft 485kts
25-Sep-20 00:15 55.631051 32.110102 65 36963ft 485kts
25-Sep-20 00:16 55.689718 32.325397 65 36964ft 485kts
25-Sep-20 00:17 55.747771 32.540399 65 36963ft 485kts
25-Sep-20 00:18 55.805676 32.756925 66 36963ft 485kts
25-Sep-20 00:19 55.864985 32.971387 61 36968ft 487kts
25-Sep-20 00:20 55.935558 33.178654 59 36998ft 489kts
25-Sep-20 00:21 56.005904 33.385747 59 37018ft 489kts
25-Sep-20 00:22 56.076396 33.593606 59 37039ft 489kts
25-Sep-20 00:23 56.147123 33.801650 60 37044ft 489kts
25-Sep-20 00:24 56.217219 34.010046 60 37062ft 489kts
25-Sep-20 00:25 56.287113 34.220264 60 37090ft 489kts
25-Sep-20 00:26 56.355456 34.430712 60 37098ft 489kts
25-Sep-20 00:27 56.423903 34.643049 60 37099ft 488kts
25-Sep-20 00:28 56.491556 34.855080 61 37098ft 489kts
25-Sep-20 00:29 56.549124 35.078278 68 37105ft 493kts
25-Sep-20 00:30 56.600039 35.309499 68 37120ft 493kts
25-Sep-20 00:31 56.650589 35.540500 68 37127ft 493kts
25-Sep-20 00:32 56.700793 35.772560 69 37127ft 493kts
25-Sep-20 00:33 56.750544 36.005070 69 37127ft 493kts
25-Sep-20 00:34 56.799752 36.237330 69 37127ft 493kts
25-Sep-20 00:35 56.848794 36.471193 69 37127ft 493kts
25-Sep-20 00:36 56.897906 36.704697 69 37127ft 493kts
25-Sep-20 00:37 56.947442 36.938586 69 37127ft 493kts
25-Sep-20 00:38 56.996498 37.172951 68 37128ft 494kts
25-Sep-20 00:39 57.045156 37.407469 68 37128ft 490kts
25-Sep-20 00:40 57.093123 37.641333 68 37127ft 487kts
25-Sep-20 00:41 57.136443 37.875767 72 37127ft 484kts
25-Sep-20 00:42 57.177223 38.111419 72 37127ft 484kts
25-Sep-20 00:43 57.217632 38.347963 72 37126ft 484kts
25-Sep-20 00:44 57.257430 38.585127 72 37138ft 484kts
25-Sep-20 00:45 57.296802 38.822796 73 37173ft 484kts
25-Sep-20 00:46 57.335642 39.060189 73 37182ft 482kts
25-Sep-20 00:47 57.382393 39.291129 66 37182ft 479kts
25-Sep-20 00:48 57.434383 39.518324 66 37182ft 479kts
25-Sep-20 00:49 57.485801 39.746366 67 37181ft 479kts
25-Sep-20 00:50 57.536732 39.975020 67 37181ft 479kts
25-Sep-20 00:51 57.587249 40.203955 67 37181ft 479kts
25-Sep-20 00:52 57.637516 40.434240 67 37181ft 479kts
25-Sep-20 00:53 57.687343 40.664961 68 37180ft 479kts
25-Sep-20 00:54 57.736596 40.895602 68 37180ft 481kts
25-Sep-20 00:55 57.787719 41.129275 67 37182ft 485kts
25-Sep-20 00:56 57.841209 41.361165 67 37181ft 485kts
25-Sep-20 00:57 57.894287 41.593557 67 37181ft 485kts
25-Sep-20 00:58 57.946916 41.826882 68 37182ft 485kts
25-Sep-20 00:59 57.999138 42.060801 68 37182ft 485kts
25-Sep-20 01:00 58.050822 42.294799 68 37182ft 485kts
25-Sep-20 01:01 58.102240 42.530200 68 37220ft 485kts
25-Sep-20 01:02 58.153649 42.766085 68 37258ft 485kts
25-Sep-20 01:03 58.204078 43.002072 69 37261ft 485kts
25-Sep-20 01:04 58.254734 43.241953 69 37261ft 495kts
25-Sep-20 01:05 58.305364 43.484875 69 37262ft 495kts
25-Sep-20 01:06 58.355546 43.728521 70 37262ft 495kts
25-Sep-20 01:07 58.405165 43.972557 70 37262ft 495kts
25-Sep-20 01:08 58.454431 44.217512 70 37262ft 495kts
25-Sep-20 01:09 58.503140 44.462636 70 37262ft 495kts
25-Sep-20 01:10 58.551469 44.708921 71 37262ft 495kts
25-Sep-20 01:11 58.599292 44.955987 71 37261ft 498kts
25-Sep-20 01:12 58.647466 45.206990 71 37262ft 503kts
25-Sep-20 01:13 58.693049 45.460060 73 37262ft 503kts
25-Sep-20 01:14 58.735442 45.716412 74 37268ft 503kts
25-Sep-20 01:15 58.777636 45.972380 74 37325ft 503kts
25-Sep-20 01:16 58.819405 46.228732 74 37342ft 502kts
25-Sep-20 01:17 58.860757 46.486308 74 37344ft 502kts
25-Sep-20 01:18 58.901582 46.744493 74 37345ft 500kts
25-Sep-20 01:19 58.941501 47.001233 73 37344ft 499kts
25-Sep-20 01:20 58.980930 47.257885 73 37345ft 497kts
25-Sep-20 01:21 59.019642 47.513693 73 37344ft 493kts
25-Sep-20 01:22 59.057531 47.768156 74 37344ft 490kts
25-Sep-20 01:23 59.094922 48.023107 74 37344ft 490kts
25-Sep-20 01:24 59.132183 48.277960 74 37344ft 490kts
25-Sep-20 01:26 59.168655 48.533647 74 37344ft 490kts
25-Sep-20 01:27 59.203854 48.790067 77 37268ft 490kts
25-Sep-20 01:28 59.227188 49.051893 80 37213ft 493kts
25-Sep-20 01:29 59.249325 49.318318 79 37210ft 499kts
25-Sep-20 01:30 59.271166 49.585159 79 37209ft 498kts
25-Sep-20 01:31 59.292432 49.852753 80 37209ft 499kts
25-Sep-20 01:32 59.313171 50.120624 80 37209ft 499kts
25-Sep-20 01:33 59.333436 50.389509 80 37210ft 499kts
25-Sep-20 01:34 59.353145 50.657837 81 37209ft 499kts
25-Sep-20 01:35 59.371796 50.927371 81 37208ft 499kts
25-Sep-20 01:36 59.389587 51.199188 80 37209ft 508kts
25-Sep-20 01:37 59.407242 51.473857 80 37209ft 507kts
25-Sep-20 01:38 59.424285 51.748290 81 37209ft 508kts
25-Sep-20 01:39 59.440753 52.022760 81 37209ft 507kts
25-Sep-20 01:40 59.456535 52.298102 81 37210ft 508kts
25-Sep-20 01:41 59.471962 52.574161 81 37210ft 508kts
25-Sep-20 01:41 59.484374 52.803627 82 37209ft 508kts
25-Sep-20 01:43 59.501154 53.125273 82 37214ft 506kts
25-Sep-20 01:44 59.511753 53.401707 84 37321ft 507kts
25-Sep-20 01:44 59.519081 53.632729 83 37378ft 506kts
25-Sep-20 01:46 59.529037 53.954636 84 37397ft 507kts
25-Sep-20 01:46 59.535735 54.186000 84 37398ft 506kts
25-Sep-20 01:47 59.543190 54.462304 84 37398ft 506kts
25-Sep-20 01:48 59.550092 54.739437 85 37398ft 507kts
25-Sep-20 01:49 59.556390 55.016692 85 37399ft 506kts
25-Sep-20 01:50 59.562031 55.290788 85 37399ft 497kts
25-Sep-20 01:51 59.567092 55.562679 85 37398ft 497kts
25-Sep-20 01:52 59.571591 55.835227 86 37398ft 497kts
25-Sep-20 01:53 59.575533 56.107969 86 37398ft 497kts
25-Sep-20 01:54 59.578889 56.380266 86 37398ft 497kts
25-Sep-20 01:55 59.581684 56.652395 87 37398ft 497kts
25-Sep-20 01:56 59.583938 56.925371 87 37399ft 498kts
25-Sep-20 01:57 59.585594 57.196793 86 37399ft 493kts
25-Sep-20 01:58 59.586763 57.467329 86 37398ft 493kts
25-Sep-20 01:59 59.587435 57.738215 87 37398ft 494kts
25-Sep-20 02:00 59.587476 58.008046 87 37398ft 494kts
25-Sep-20 02:01 59.587111 58.278596 87 37398ft 494kts
25-Sep-20 02:02 59.586371 58.549733 87 37398ft 494kts
25-Sep-20 02:03 59.585155 58.820211 88 37398ft 494kts
25-Sep-20 02:04 59.582978 59.090452 89 37414ft 491kts
25-Sep-20 02:05 59.572446 59.359133 90 37420ft 492kts
25-Sep-20 02:06 59.561212 59.627182 90 37425ft 491kts
25-Sep-20 02:07 59.549549 59.895901 91 37424ft 492kts
25-Sep-20 02:08 59.537326 60.164275 91 37424ft 491kts
25-Sep-20 02:09 59.524541 60.432350 91 37424ft 492kts
25-Sep-20 02:10 59.511212 60.700302 92 37423ft 492kts
25-Sep-20 02:11 59.497360 60.968143 92 37422ft 493kts
25-Sep-20 02:12 59.482936 61.235042 91 37424ft 488kts
25-Sep-20 02:13 59.468199 61.499262 91 37423ft 488kts
25-Sep-20 02:14 59.452824 61.764660 92 37425ft 488kts
25-Sep-20 02:15 59.436992 62.028794 92 37424ft 489kts
25-Sep-20 02:16 59.420526 62.294094 92 37425ft 488kts
25-Sep-20 02:17 59.403686 62.557779 92 37422ft 489kts
25-Sep-20 02:18 59.386476 62.822301 92 37424ft 488kts
25-Sep-20 02:19 59.371426 63.086965 93 37424ft 491kts
25-Sep-20 02:20 59.355552 63.353345 94 37426ft 492kts
25-Sep-20 02:21 59.339242 63.618689 94 37424ft 491kts
25-Sep-20 02:22 59.322511 63.884256 94 37423ft 492kts
25-Sep-20 02:23 59.302401 64.149199 97 37425ft 493kts
25-Sep-20 02:24 59.279721 64.413170 96 37423ft 493kts
25-Sep-20 02:25 59.256924 64.677062 97 37424ft 493kts
25-Sep-20 02:26 59.233552 64.940921 96 37424ft 494kts
25-Sep-20 02:27 59.209800 65.203388 95 37422ft 491kts
25-Sep-20 02:28 59.185668 65.464953 95 37422ft 491kts
25-Sep-20 02:29 59.160906 65.726360 96 37425ft 491kts
25-Sep-20 02:30 59.135625 65.987761 96 37424ft 491kts
25-Sep-20 02:31 59.109841 66.248323 96 37424ft 491kts
25-Sep-20 02:32 59.083493 66.509378 96 37423ft 491kts
25-Sep-20 02:33 59.056790 66.768863 97 37424ft 492kts
25-Sep-20 02:34 59.029133 67.028973 96 37424ft 491kts
25-Sep-20 02:35 59.001270 67.286419 94 37421ft 483kts
25-Sep-20 02:36 58.973621 67.540551 93 37366ft 483kts
25-Sep-20 02:37 58.945301 67.794723 94 37326ft 483kts
25-Sep-20 02:38 58.916538 68.047822 94 37317ft 482kts
25-Sep-20 02:39 58.887022 68.300719 94 37316ft 482kts
25-Sep-20 02:40 58.856962 68.552548 93 37315ft 481kts
25-Sep-20 02:41 58.826700 68.804343 94 37317ft 482kts
25-Sep-20 02:42 58.795935 69.055358 93 37319ft 478kts
25-Sep-20 02:43 58.765198 69.302504 93 37318ft 475kts
25-Sep-20 02:44 58.734024 69.549256 93 37318ft 475kts
25-Sep-20 02:45 58.702280 69.796158 94 37317ft 476kts
25-Sep-20 02:46 58.669972 70.043193 94 37318ft 476kts
25-Sep-20 02:47 58.637267 70.289018 94 37318ft 476kts
25-Sep-20 02:48 58.604056 70.534734 94 37318ft 476kts
25-Sep-20 02:49 58.570332 70.780534 94 37318ft 478kts
25-Sep-20 02:50 58.536266 71.025062 95 37319ft 473kts
25-Sep-20 02:51 58.501904 71.267449 95 37318ft 472kts
25-Sep-20 02:52 58.467116 71.509306 95 37310ft 472kts
25-Sep-20 02:53 58.431939 71.750451 96 37295ft 473kts
25-Sep-20 02:54 58.396202 71.991989 96 37292ft 474kts
25-Sep-20 02:55 58.359937 72.233340 96 37291ft 474kts
25-Sep-20 02:56 58.323348 72.473490 96 37292ft 474kts
25-Sep-20 02:57 58.286404 72.713087 97 37291ft 473kts
25-Sep-20 02:58 58.248822 72.952688 97 37292ft 475kts
25-Sep-20 02:59 58.210226 73.191671 100 37288ft 473kts
25-Sep-20 03:00 58.171278 73.429407 100 37274ft 473kts
25-Sep-20 03:01 58.131882 73.667468 101 37254ft 473kts
25-Sep-20 03:02 58.092327 73.904028 101 37230ft 474kts
25-Sep-20 03:03 58.052127 74.140966 101 37214ft 474kts
25-Sep-20 03:04 58.011426 74.377656 101 37210ft 475kts
25-Sep-20 03:05 57.970194 74.614297 101 37209ft 474kts
25-Sep-20 03:06 57.928668 74.849933 102 37210ft 475kts
25-Sep-20 03:07 57.886554 75.085595 103 37208ft 477kts
25-Sep-20 03:08 57.843569 75.320322 104 37210ft 477kts
25-Sep-20 03:09 57.800291 75.555894 103 37210ft 477kts
25-Sep-20 03:10 57.756793 75.790469 104 37209ft 478kts
25-Sep-20 03:11 57.712736 76.025222 104 37209ft 478kts
25-Sep-20 03:12 57.668358 76.258546 104 37225ft 477kts
25-Sep-20 03:13 57.623660 76.490759 104 37234ft 477kts
25-Sep-20 03:14 57.578447 76.723014 105 37235ft 477kts
25-Sep-20 03:15 57.532925 76.954564 106 37237ft 474kts
25-Sep-20 03:16 57.487301 77.183332 106 37236ft 471kts
25-Sep-20 03:17 57.441339 77.411027 106 37236ft 472kts
25-Sep-20 03:18 57.395044 77.637981 106 37235ft 472kts
25-Sep-20 03:19 57.348237 77.865310 107 37236ft 472kts
25-Sep-20 03:20 57.301039 78.091748 107 37236ft 472kts
25-Sep-20 03:21 57.253466 78.317554 107 37236ft 472kts
25-Sep-20 03:22 57.205577 78.542706 107 37234ft 472kts
25-Sep-20 03:23 57.157041 78.766891 108 37146ft 472kts
25-Sep-20 03:24 57.108203 78.991031 108 37009ft 473kts
25-Sep-20 03:25 57.059085 79.214265 108 36975ft 468kts
25-Sep-20 03:27 57.009973 79.435052 108 36966ft 468kts
25-Sep-20 03:28 56.960515 79.655140 108 36965ft 468kts
25-Sep-20 03:29 56.910446 79.876114 108 36965ft 469kts
25-Sep-20 03:30 56.859707 80.095563 109 36965ft 469kts
25-Sep-20 03:31 56.808711 80.314810 108 36965ft 469kts
25-Sep-20 03:32 56.757472 80.533519 108 36965ft 470kts
25-Sep-20 03:33 56.705886 80.751772 109 36965ft 470kts
25-Sep-20 03:34 56.653892 80.969798 110 36966ft 469kts
25-Sep-20 03:35 56.601885 81.185455 110 36965ft 466kts
25-Sep-20 03:36 56.549519 81.400123 110 36965ft 466kts
25-Sep-20 03:37 56.496812 81.614358 110 36965ft 466kts
25-Sep-20 03:38 56.443899 81.827912 111 36965ft 466kts
25-Sep-20 03:39 56.390586 82.041106 111 36965ft 466kts
25-Sep-20 03:40 56.336587 82.253830 111 36965ft 467kts
25-Sep-20 03:41 56.282266 82.465652 111 36965ft 467kts
25-Sep-20 03:42 56.227767 82.677072 112 36965ft 467kts
25-Sep-20 03:43 56.173012 82.888132 112 36966ft 465kts
25-Sep-20 03:44 56.118265 83.096903 113 36965ft 463kts
25-Sep-20 03:44 56.072270 83.270431 113 36965ft 463kts
25-Sep-20 03:46 56.007648 83.512219 113 36965ft 463kts
25-Sep-20 03:47 55.951855 83.719097 114 36958ft 463kts
25-Sep-20 03:47 55.905128 83.891168 114 36948ft 463kts
25-Sep-20 03:49 55.838675 84.131453 114 36938ft 463kts
25-Sep-20 03:49 55.791176 84.302579 114 36937ft 464kts
25-Sep-20 03:50 55.733956 84.507385 114 36937ft 463kts
25-Sep-20 03:52 55.666912 84.745371 115 36937ft 464kts
25-Sep-20 03:52 55.618591 84.915546 115 36937ft 464kts
25-Sep-20 03:53 55.560496 85.118398 115 36937ft 462kts
25-Sep-20 03:54 55.502228 85.319825 116 36937ft 461kts
25-Sep-20 03:55 55.443675 85.520506 116 36937ft 461kts
25-Sep-20 03:56 55.384740 85.721152 116 36937ft 461kts
25-Sep-20 03:57 55.325864 85.920327 117 36937ft 461kts
25-Sep-20 03:58 55.266763 86.120244 114 36937ft 461kts
25-Sep-20 03:59 55.213784 86.324570 113 36937ft 461kts
25-Sep-20 04:00 55.160844 86.528387 113 36937ft 461kts
25-Sep-20 04:01 55.107671 86.731620 114 36937ft 461kts
25-Sep-20 04:02 55.054041 86.935006 114 36937ft 460kts
25-Sep-20 04:03 55.000521 87.136227 116 36936ft 459kts
25-Sep-20 04:04 54.945986 87.338704 116 36934ft 466kts
25-Sep-20 04:05 54.890386 87.543260 116 36936ft 472kts
25-Sep-20 04:06 54.833703 87.748921 116 36937ft 474kts
25-Sep-20 04:07 54.776856 87.954918 116 36935ft 473kts
25-Sep-20 04:08 54.719780 88.159891 116 36937ft 473kts
25-Sep-20 04:09 54.662368 88.364380 116 36936ft 474kts
25-Sep-20 04:10 54.604635 88.568676 116 36937ft 473kts
25-Sep-20 04:11 54.546309 88.771115 118 36917ft 473kts
25-Sep-20 04:12 54.486929 88.973868 117 36900ft 475kts
25-Sep-20 04:13 54.427706 89.175121 117 36908ft 471kts
25-Sep-20 04:14 54.368304 89.375266 117 36908ft 471kts
25-Sep-20 04:15 54.308689 89.574518 117 36908ft 471kts
25-Sep-20 04:16 54.248804 89.773319 118 36909ft 471kts
25-Sep-20 04:17 54.188453 89.971936 118 36908ft 471kts
25-Sep-20 04:18 54.127896 90.169349 118 36908ft 471kts
25-Sep-20 04:19 54.067026 90.366175 118 36908ft 471kts
25-Sep-20 04:20 54.005762 90.562676 118 36908ft 471kts
25-Sep-20 04:21 53.944153 90.758964 119 36908ft 471kts
25-Sep-20 04:22 53.882161 90.954544 119 36909ft 471kts
25-Sep-20 04:23 53.820209 91.147795 119 36910ft 463kts
25-Sep-20 04:24 53.759349 91.337286 119 36908ft 458kts
25-Sep-20 04:25 53.692843 91.520533 123 36910ft 458kts
25-Sep-20 04:26 53.624772 91.701748 123 36906ft 458kts
25-Sep-20 04:27 53.556725 91.882289 123 36909ft 458kts
25-Sep-20 04:28 53.488272 92.062275 124 36908ft 458kts
25-Sep-20 04:29 53.419416 92.241942 124 36908ft 458kts
25-Sep-20 04:30 53.350523 92.420444 124 36907ft 458kts
25-Sep-20 04:31 53.281009 92.599287 124 36908ft 458kts
25-Sep-20 04:32 53.211462 92.777290 124 36907ft 458kts
25-Sep-20 04:33 53.141686 92.954492 124 36909ft 458kts
25-Sep-20 04:34 53.071754 93.130846 125 36906ft 462kts
25-Sep-20 04:35 52.999721 93.310970 125 36904ft 478kts
25-Sep-20 04:36 52.924747 93.496872 125 36906ft 490kts
25-Sep-20 04:37 52.848473 93.684182 126 36907ft 490kts
25-Sep-20 04:38 52.772586 93.869831 126 36909ft 490kts
25-Sep-20 04:39 52.696048 94.055781 126 36909ft 490kts
25-Sep-20 04:40 52.619412 94.240571 126 36908ft 489kts
25-Sep-20 04:41 52.542412 94.424903 126 36907ft 490kts
25-Sep-20 04:42 52.465235 94.608337 126 36910ft 490kts
25-Sep-20 04:43 52.387691 94.791750 126 36908ft 489kts
25-Sep-20 04:44 52.309856 94.974366 127 36909ft 491kts
25-Sep-20 04:45 52.231530 95.156581 127 36908ft 491kts
25-Sep-20 04:46 52.152668 95.338729 127 36909ft 492kts
25-Sep-20 04:47 52.073853 95.519502 127 36905ft 491kts
25-Sep-20 04:48 51.994726 95.699833 127 36907ft 491kts
25-Sep-20 04:49 51.915173 95.880200 128 36909ft 491kts
25-Sep-20 04:50 51.835330 96.058629 128 36908ft 491kts
25-Sep-20 04:51 51.755032 96.237380 128 36908ft 491kts
25-Sep-20 04:52 51.674859 96.414985 128 36909ft 491kts
25-Sep-20 04:53 51.594206 96.592418 128 36908ft 491kts
25-Sep-20 04:54 51.513631 96.768884 128 36910ft 491kts
25-Sep-20 04:55 51.432765 96.944593 128 36907ft 491kts
25-Sep-20 04:56 51.351633 97.119651 129 36909ft 490kts
25-Sep-20 04:57 51.270383 97.293654 129 36908ft 489kts
25-Sep-20 04:58 51.189045 97.466728 129 36906ft 489kts
25-Sep-20 04:59 51.107497 97.639429 129 36787ft 488kts
25-Sep-20 05:00 51.027073 97.813538 126 36538ft 492kts
25-Sep-20 05:01 50.964817 98.010050 115 36526ft 509kts
25-Sep-20 05:02 50.914861 98.222360 115 36580ft 519kts
25-Sep-20 05:03 50.899968 98.285040 116 36589ft 522kts
25-Sep-20 05:04 50.899968 98.285040 116 36589ft 522kts
25-Sep-20 05:05 50.899968 98.285040 116 36589ft 522kts
25-Sep-20 05:06 50.899968 98.285040 116 36589ft 522kts
25-Sep-20 05:07 50.899968 98.285040 116 36589ft 522kts
25-Sep-20 05:08 50.899968 98.285040 116 36589ft 522kts
25-Sep-20 05:09 50.899968 98.285040 116 36589ft 522kts
25-Sep-20 05:10 50.899968 98.285040 116 36589ft 522kts
25-Sep-20 05:11 50.899968 98.285040 116 36589ft 522kts
25-Sep-20 05:12 50.899968 98.285040 116 36589ft 522kts
25-Sep-20 05:13 50.899968 98.285040 116 36589ft 522kts
25-Sep-20 05:14 50.899968 98.285040 116 36589ft 522kts
25-Sep-20 05:15 50.899968 98.285040 116 36589ft 522kts
25-Sep-20 05:16 50.899968 98.285040 116 36589ft 522kts
25-Sep-20 05:17 50.899968 98.285040 116 36589ft 522kts
25-Sep-20 05:18 50.899968 98.285040 116 36589ft 522kts
25-Sep-20 05:19 50.899968 98.285040 116 36589ft 522kts
25-Sep-20 05:20 50.899968 98.285040 116 36589ft 522kts
25-Sep-20 05:21 50.899968 98.285040 116 36589ft 522kts
25-Sep-20 05:22 50.899968 98.285040 116 36589ft 522kts
25-Sep-20 05:23 50.899968 98.285040 116 36589ft 522kts
25-Sep-20 05:24 50.899968 98.285040 116 36589ft 522kts
25-Sep-20 05:25 50.899968 98.285040 116 36589ft 522kts
25-Sep-20 05:26 50.899968 98.285040 116 36589ft 522kts
25-Sep-20 05:28 50.899968 98.285040 116 36589ft 522kts
25-Sep-20 05:29 50.899968 98.285040 116 36589ft 522kts
25-Sep-20 05:30 50.899968 98.285040 116 36589ft 522kts
25-Sep-20 05:31 50.899968 98.285040 116 36589ft 522kts
25-Sep-20 05:32 50.899968 98.285040 116 36589ft 522kts
25-Sep-20 05:33 50.899968 98.285040 116 36589ft 522kts
25-Sep-20 05:34 50.899968 98.285040 116 36589ft 522kts
25-Sep-20 05:35 50.899968 98.285040 116 36589ft 522kts
25-Sep-20 05:36 50.899968 98.285040 116 36589ft 522kts
25-Sep-20 05:37 50.899968 98.285040 116 36589ft 522kts
25-Sep-20 05:38 50.899968 98.285040 116 36589ft 522kts
25-Sep-20 05:39 50.899968 98.285040 116 36589ft 522kts
25-Sep-20 05:40 50.899968 98.285040 116 36589ft 522kts
25-Sep-20 05:41 50.899968 98.285040 116 36589ft 522kts
25-Sep-20 05:42 50.899968 98.285040 116 36589ft 522kts
25-Sep-20 05:43 50.899968 98.285040 116 36589ft 522kts
25-Sep-20 05:44 50.899968 98.285040 116 36589ft 522kts
25-Sep-20 05:44 50.899968 98.285040 116 36589ft 522kts
25-Sep-20 05:46 50.899968 98.285040 116 36589ft 522kts
25-Sep-20 05:46 50.899968 98.285040 116 36589ft 522kts
25-Sep-20 05:47 50.899968 98.285040 116 36589ft 522kts
25-Sep-20 05:49 50.899968 98.285040 116 36589ft 522kts
25-Sep-20 05:49 50.899968 98.285040 116 36589ft 522kts
25-Sep-20 05:50 50.899968 98.285040 116 36589ft 522kts
25-Sep-20 05:51 50.899968 98.285040 116 36589ft 522kts
25-Sep-20 05:52 50.899968 98.285040 116 36589ft 522kts
25-Sep-20 05:53 50.899968 98.285040 116 36589ft 522kts
25-Sep-20 05:54 50.899968 98.285040 116 36589ft 522kts
25-Sep-20 05:55 50.899968 98.285040 116 36589ft 522kts
25-Sep-20 05:56 50.899968 98.285040 116 36589ft 522kts
25-Sep-20 05:57 50.899968 98.285040 116 36589ft 522kts
25-Sep-20 05:58 50.899968 98.285040 116 36589ft 522kts
25-Sep-20 05:59 50.899968 98.285040 116 36589ft 522kts
25-Sep-20 06:00 50.899968 98.285040 116 36589ft 522kts
25-Sep-20 06:01 50.899968 98.285040 116 36589ft 522kts
25-Sep-20 06:02 50.899968 98.285040 116 36589ft 522kts
25-Sep-20 06:03 50.899968 98.285040 116 36589ft 522kts
25-Sep-20 06:04 50.899968 98.285040 116 36589ft 522kts
25-Sep-20 06:05 50.899968 98.285040 116 36589ft 522kts
25-Sep-20 06:06 50.899968 98.285040 116 36589ft 522kts
25-Sep-20 06:07 50.899968 98.285040 116 36589ft 522kts
25-Sep-20 06:08 50.899968 98.285040 116 36589ft 522kts
25-Sep-20 06:09 50.899968 98.285040 116 36589ft 522kts
25-Sep-20 06:10 50.892647 98.315597 116 36596ft 523kts
25-Sep-20 06:11 50.840147 98.531952 116 36655ft 526kts
25-Sep-20 06:12 50.787817 98.747687 117 36662ft 526kts
25-Sep-20 06:13 50.735313 98.962653 117 36662ft 527kts
25-Sep-20 06:14 50.682271 99.177539 120 36662ft 525kts
25-Sep-20 06:15 50.629582 99.388542 120 38415ft 506kts
25-Sep-20 06:16 50.577499 99.594793 120 38658ft 508kts
25-Sep-20 06:17 50.529376 99.784833 121 38659ft 507kts
25-Sep-20 06:18 50.476999 99.989689 121 38660ft 511kts
25-Sep-20 06:19 50.414017 100.189689 132 38659ft 508kts
25-Sep-20 06:20 50.333466 100.370051 134 38658ft 507kts
25-Sep-20 06:21 50.252465 100.549530 134 38660ft 505kts
25-Sep-20 06:22 50.171046 100.729199 135 38659ft 510kts
25-Sep-20 06:23 50.088835 100.909450 134 38659ft 512kts
25-Sep-20 06:24 50.006090 101.089390 133 38659ft 512kts
25-Sep-20 06:25 49.923046 101.268961 133 38657ft 513kts
25-Sep-20 06:26 49.839332 101.447800 133 38660ft 514kts
25-Sep-20 06:27 49.755185 101.626728 133 38660ft 514kts
25-Sep-20 06:28 49.671258 101.804914 134 38659ft 514kts
25-Sep-20 06:29 49.586963 101.982330 134 38660ft 513kts
25-Sep-20 06:30 49.502466 102.158831 134 38659ft 513kts
25-Sep-20 06:31 49.417475 102.335168 134 38660ft 513kts
25-Sep-20 06:32 49.332578 102.510202 134 38660ft 513kts
25-Sep-20 06:33 49.247196 102.685154 135 38657ft 512kts
25-Sep-20 06:34 49.162197 102.858671 135 38659ft 512kts
25-Sep-20 06:35 49.076294 103.032383 135 38659ft 512kts
25-Sep-20 06:36 48.990233 103.205484 135 38658ft 515kts
25-Sep-20 06:37 48.904044 103.377919 135 38660ft 511kts
25-Sep-20 06:38 48.828779 103.563285 121 38706ft 525kts
25-Sep-20 06:39 48.770908 103.767371 120 38736ft 526kts
25-Sep-20 06:40 48.712726 103.970473 120 38740ft 526kts
25-Sep-20 06:41 48.653842 104.172920 120 38741ft 527kts
25-Sep-20 06:42 48.594114 104.375563 120 38741ft 527kts
25-Sep-20 06:43 48.534463 104.577425 120 38741ft 528kts
25-Sep-20 06:44 48.474715 104.778575 121 38741ft 527kts
25-Sep-20 06:45 48.414423 104.979537 121 38741ft 528kts
25-Sep-20 06:46 48.353455 105.180873 120 38741ft 530kts
25-Sep-20 06:47 48.292107 105.382118 120 38741ft 530kts
25-Sep-20 06:48 48.230479 105.582485 120 38741ft 531kts
25-Sep-20 06:49 48.168492 105.782861 121 38740ft 530kts
25-Sep-20 06:50 48.106223 105.982305 121 38741ft 530kts
25-Sep-20 06:51 48.043593 106.181192 121 38741ft 529kts
25-Sep-20 06:52 47.980566 106.379812 121 38742ft 529kts
25-Sep-20 06:53 47.917377 106.577699 121 38741ft 529kts
25-Sep-20 06:54 47.850733 106.772043 129 38740ft 522kts
25-Sep-20 06:55 47.773210 106.953951 129 38741ft 520kts
25-Sep-20 06:56 47.696039 107.134759 129 38741ft 520kts
25-Sep-20 06:57 47.618567 107.315405 129 38741ft 520kts
25-Sep-20 06:58 47.540714 107.495714 128 38741ft 520kts
25-Sep-20 06:59 47.462780 107.675079 129 38738ft 519kts
25-Sep-20 07:00 47.384571 107.854423 129 38741ft 519kts
25-Sep-20 07:01 47.306127 108.032628 129 38741ft 519kts
25-Sep-20 07:02 47.227555 108.209994 129 38741ft 519kts
25-Sep-20 07:03 47.148732 108.386834 129 38741ft 519kts
25-Sep-20 07:04 47.069603 108.563453 129 38741ft 518kts
25-Sep-20 07:05 46.990090 108.739797 130 38741ft 519kts
25-Sep-20 07:06 46.910230 108.915227 129 38741ft 520kts
25-Sep-20 07:07 46.829386 109.091438 129 38741ft 523kts
25-Sep-20 07:08 46.748103 109.267879 128 38741ft 525kts
25-Sep-20 07:09 46.667015 109.444068 128 38741ft 526kts
25-Sep-20 07:10 46.585408 109.620329 128 38741ft 525kts
25-Sep-20 07:11 46.503389 109.796838 128 38741ft 527kts
25-Sep-20 07:12 46.421351 109.971931 129 38741ft 527kts
25-Sep-20 07:13 46.338895 110.146675 129 38741ft 527kts
25-Sep-20 07:14 46.256013 110.321231 129 38741ft 527kts
25-Sep-20 07:15 46.172889 110.495237 129 38741ft 527kts
25-Sep-20 07:16 46.089494 110.668793 129 38738ft 527kts
25-Sep-20 07:17 46.006108 110.841783 129 38741ft 526kts
25-Sep-20 07:18 45.922338 111.013969 129 38741ft 528kts
25-Sep-20 07:19 45.837910 111.186113 128 38743ft 529kts
25-Sep-20 07:20 45.752312 111.358045 128 38860ft 530kts
25-Sep-20 07:21 45.667315 111.528673 128 39047ft 529kts
25-Sep-20 07:22 45.582027 111.699211 129 39087ft 528kts
25-Sep-20 07:23 45.496663 111.869185 129 39095ft 528kts
25-Sep-20 07:24 45.410805 112.038690 129 39096ft 528kts
25-Sep-20 07:25 45.325546 112.205990 129 39096ft 528kts
25-Sep-20 07:27 45.239354 112.374133 129 39096ft 528kts
25-Sep-20 07:28 45.152853 112.541930 129 39096ft 528kts
25-Sep-20 07:29 45.066212 112.709186 129 39096ft 525kts
25-Sep-20 07:30 44.980131 112.874560 128 39097ft 521kts
25-Sep-20 07:31 44.893957 113.038987 127 39094ft 523kts
25-Sep-20 07:32 44.807768 113.203776 124 39096ft 524kts
25-Sep-20 07:33 44.740082 113.384518 112 39094ft 525kts
25-Sep-20 07:34 44.683149 113.572797 112 39096ft 525kts
25-Sep-20 07:35 44.625308 113.761191 113 39096ft 525kts
25-Sep-20 07:36 44.567305 113.948328 113 39096ft 525kts
25-Sep-20 07:37 44.508666 114.135926 113 39096ft 525kts
25-Sep-20 07:38 44.449922 114.322500 113 39096ft 525kts
25-Sep-20 07:39 44.390925 114.508544 113 39096ft 525kts
25-Sep-20 07:40 44.331199 114.695663 114 40008ft 525kts
25-Sep-20 07:41 44.182978 115.081831 135 41094ft 525kts
25-Sep-20 07:42 43.930763 115.451169 133 41093ft 527kts
25-Sep-20 07:42 43.725125 115.751882 134 41093ft 538kts
25-Sep-20 07:44 43.431015 116.177479 134 41093ft 538kts
25-Sep-20 07:45 43.172411 116.546263 134 41093ft 538kts
25-Sep-20 07:45 42.971954 116.829348 134 41093ft 537kts
25-Sep-20 07:46 42.735830 117.157641 131 41093ft 543kts
25-Sep-20 07:48 42.466849 117.528334 131 41093ft 543kts
25-Sep-20 07:48 42.279739 117.783740 132 41093ft 544kts
25-Sep-20 07:49 42.048812 118.117595 123 41093ft 541kts
25-Sep-20 07:50 41.831549 118.490292 124 41093ft 542kts
25-Sep-20 07:51 41.613668 118.857590 124 41093ft 542kts
25-Sep-20 07:52 41.376627 119.252125 123 41093ft 538kts
25-Sep-20 07:53 41.131899 119.654116 124 41090ft 538kts
25-Sep-20 07:54 40.905440 120.021986 124 41070ft 539kts
25-Sep-20 07:55 40.670479 120.397361 124 41068ft 539kts
25-Sep-20 07:56 40.419726 120.794614 125 41068ft 539kts
25-Sep-20 07:57 40.168718 121.186787 125 41070ft 532kts
25-Sep-20 07:58 39.918628 121.572650 125 41067ft 532kts
25-Sep-20 07:59 39.695212 121.912800 125 41067ft 532kts
25-Sep-20 08:00 39.430186 122.312151 125 41067ft 532kts
25-Sep-20 08:01 39.179706 122.696586 124 41068ft 537kts
25-Sep-20 08:02 38.936535 123.083611 130 41071ft 530kts
25-Sep-20 08:03 38.684222 123.477085 131 41066ft 523kts
25-Sep-20 08:04 38.439470 123.856556 132 41068ft 523kts
25-Sep-20 08:05 38.237280 124.166193 132 41048ft 522kts
25-Sep-20 08:06 38.042301 124.462069 132 39252ft 506kts
25-Sep-20 08:07 37.852517 124.747398 133 35517ft 509kts
25-Sep-20 08:08 37.633649 125.072976 131 27100ft 518kts
25-Sep-20 08:09 37.415855 125.395911 123 21366ft 462kts
25-Sep-20 08:10 37.302645 125.733032 111 15548ft 415kts
25-Sep-20 08:11 37.249527 126.041218 94 10019ft 379kts
25-Sep-20 08:12 37.226526 126.303338 94 6552ft 311kts
25-Sep-20 08:13 37.207728 126.511137 94 5008ft 265kts
25-Sep-20 08:14 37.250790 126.589650 38 4089ft 257kts
25-Sep-20 08:15 37.306997 126.608992 312 3176ft 241kts
25-Sep-20 08:16 37.355258 126.554803 326 2441ft 220kts
25-Sep-20 08:17 37.397684 126.517041 327 1447ft 159kts
25-Sep-20 08:18 37.430462 126.487839 327 691ft 140kts
25-Sep-20 08:19 37.461672 126.460009 324 34ft 112kts
25-Sep-20 08:20 37.474707 126.446988 284 34ft 9kts
25-Sep-20 08:21 37.474140 126.446222 149 34ft 6kts
25-Sep-20 08:22 37.471108 126.448918 144 34ft 16kts
25-Sep-20 08:23 37.467853 126.448288 233 34ft 22kts
25-Sep-20 08:24 37.462627 126.450725 144 34ft 10kts
25-Sep-20 08:25 37.460636 126.448179 234 34ft 21kts
25-Sep-20 08:26 37.456564 126.440988 234 34ft 16kts
25-Sep-20 08:27 37.454643 126.441162 141 34ft 0kts

Navigation Log

Ident Type
Flight plan parsing failed, navigation log unavailable